To NAV CANADA Home Page Login to a new session Search on AWWS site Disclaimer Vers la page française équivalente Tips FAQ What's new on the site To the Forecasts and Observations / NOTAM section To "File a Flight Plan" website Publications and other links Update of the User's profile FIC Telephone Numbers My Weather Data Folder Route Weather Data Regional Weather Data Local Weather Data To the Forecasts and Observations / NOTAM section
Request Generated 11/16/2018 at 01:23:55 UTC . Weather information available at that time is displayed.

METAR/TAF

DAUPHIN (LT. COL W.G.(BILLY) BARKER, VC)/MB    (show WxCam)

METAR CYDN 160100Z AUTO 04012KT 9SM OVC008 M07/M07 A3007 RMK SLP206=
METAR CYDN 160000Z AUTO 04011KT 9SM OVC008 M06/M06 A3006 RMK SLP203=
SPECI CYDN 152355Z AUTO 04011KT 9SM OVC008 M06/M06 A3006 RMK SLP201=
SPECI CYDN 152345Z AUTO 04011KT 9SM -SN OVC008 M05/M06 A3005 RMK SLP199=
METAR CYDN 152300Z AUTO 04010KT 9SM OVC008 M05/M05 A3004 RMK SLP194=

TAF CYDN 152338Z 1600/1612 04007KT P6SM FEW008 OVC015 TEMPO 1600/1612
5SM -SN BR OVC008
RMK FCST BASED ON AUTO OBS. NXT FCST BY 160600Z=
Your time UTC time
Weather data provided by Environment Canada and NAV CANADA